Philo, CA (95466)

6:54 AM PDT on August 30, 2014 (GMT -0700)
Angel Camp Vineyard | Change Station
CLOSE
Current Station
Personal Weather Station
Location: Philo, CA
Elevation: 341 ft
Nearby Weather Stations

Elev 341 ft 39.10 °N, 123.49 °W | Updated 12 minutes ago

Clear
Clear
51.5 °F
Feels Like 51.5 °F
N
0.0
Wind Variable Wind from NNW
Gusts 0.0 mph

Today
High -- | Low -- °F
--% Chance of Precip.
Yesterday
High -- | Low -- °F
Precip. -- in
6:41 AM 7:47 PM
Waxing Crescent, 22% visible
Pressure 29.89 in
Visibility 10.0 miles
Clouds Clear
Dew Point 50 °F
Humidity 96%
Rainfall 0.00 in
Snow Depth Not available.
UV 0 out of 12
Pollen 8.80 out of 12
Air Quality Not available.
Flu Activity Not available.
METAR KUKI 301256Z AUTO 33004KT 10SM CLR 16/07 A2991 RMK AO2 SLP122 T01560067

More Conditions Fewer Conditions

Pressure 29.89 in
Visibility 10.0 miles
Clouds Clear
Dew Point 50 °F
Humidity 96%
Rainfall 0.00 in
Snow Depth Not available.
UV 0 out of 12
Pollen 8.80 out of 12
Air Quality Not available.
Flu Activity Not available.
METAR KUKI 301256Z AUTO 33004KT 10SM CLR 16/07 A2991 RMK AO2 SLP122 T01560067

More Conditions Fewer Conditions

10-Day Weather Forecast

Almanac

Astronomy

Aug. 30, 2014 Rise Set
Actual Time 6:41 AM PDT 7:47 PM PDT
Civil Twilight 6:13 AM PDT 8:14 PM PDT
Nautical Twilight 5:40 AM PDT 8:47 PM PDT
Astronomical Twilight 5:06 AM PDT 9:21 PM PDT
Moon 11:31 AM PDT 10:27 PM PDT
Length of Visible Light 14h 01m
Length of Day
13h 06m
Tomorrow will be 2m 26s shorter.
Waxing Crescent, 22% of the Moon is Illuminated
Today
Waxing Crescent
Sep 2
First Quarter
Sep 8
Full
Sep 15
Last Quarter
Sep 24
New

Today's Extremes

State Highs State Lows

Community

WunderPhotos

Upload Photos

1,748,510 photos uploaded!

WunderBlogs® & News

By Dr. Jeff Masters
Director of Meteorology, Weather Underground
By Kari Strenfel
Meteorologist, Weather Underground
By Christopher C. Burt
Weather Historian, Weather Underground
August 30, 2014
August 30, 2014
August 30, 2014

Nearby

Snow Depth

Station Depth Elevation
CSS Lab 3 in 6900 ft
Independence Camp 0 in 7000 ft
Tahoe City Cross 0 in 6750 ft
Rubicon #2 0 in 7500 ft
Echo Peak 1 in 7800 ft

Earthquake Activity

City Distance Mag. Time & Date
The Geysers, California 42 miles 2.7 2:53 PM PDT
2014-08-29
Minimum magnitude displayed is 2.5.

Coastal Water Temperatures

Place Temperature
Arena Cove, CA 55.9 °F
North Spit, CA 57.9 °F
Point Reyes, CA 61.0 °F
San Francisco, CA 64.9 °F
Richmond, CA 66.9 °F

Nearby Weather Stations